»·PEaware :: N360BG KLAS-KASE

N360BG :: KLAS-KASE

FLIGHT INFORMATION

Flight Status: Arrived
Operator: Privately registered:
United States
More flights under this callsign
Pilot: Brandon G. (13)
Aircraft: BOEING 737-200
(B732)
More flights by this aircraft type
Origin: KLAS McCarran Intl
United States
Destination: KASE Aspen-Pitkin Co/Sardy
United States
More flights between these airports :: More routes between these airports
Route: TRALR9 VERKN HVE JNC J80 DBL
File this flight plan on PilotEdge
Remarks:
Altitude:
(Current/Filed)
35,000ft
Speed:
(Current/Filed)
385kts
Departed: 05-Oct-18 07:31 PM
Arrived: 05-Oct-18 08:46 PM
Distance/Time
Traveled:
436nm/1:15
Distance/Time
To Go:
Arrived

Flight Plot

Page will automatically refresh every two minutes.

Flight plan parsing failed; only flown route is shown


Map Options




Map Legend


Flown Route
Filed Route
Departure Airport
Arrival Airport
Navaid (VOR, NDB)
Fix

Horizontal Profiles

Position Reports

Time Latitude Longitude Heading Altitude Ground
Speed
05-Oct-18 19:08 36.091585 -115.164350 243 2129ft 0kts
05-Oct-18 19:09 36.091585 -115.164350 243 2129ft 0kts
05-Oct-18 19:10 36.091585 -115.164350 243 2129ft 0kts
05-Oct-18 19:11 36.091585 -115.164350 243 2129ft 0kts
05-Oct-18 19:12 36.091585 -115.164350 243 2129ft 0kts
05-Oct-18 19:13 36.091585 -115.164350 243 2129ft 0kts
05-Oct-18 19:14 36.091585 -115.164350 243 2129ft 0kts
05-Oct-18 19:15 36.091585 -115.164350 243 2129ft 0kts
05-Oct-18 19:16 36.091585 -115.164350 243 2129ft 0kts
05-Oct-18 19:17 36.091585 -115.164350 243 2129ft 0kts
05-Oct-18 19:18 36.091585 -115.164350 243 2129ft 0kts
05-Oct-18 19:19 36.091585 -115.164350 243 2129ft 0kts
05-Oct-18 19:20 36.091585 -115.164350 243 2129ft 0kts
05-Oct-18 19:21 36.091585 -115.164350 243 2129ft 0kts
05-Oct-18 19:22 36.091585 -115.164350 243 2129ft 0kts
05-Oct-18 19:23 36.091585 -115.164350 243 2129ft 0kts
05-Oct-18 19:24 36.091585 -115.164350 243 2129ft 0kts
05-Oct-18 19:25 36.091585 -115.164350 243 2129ft 0kts
05-Oct-18 19:26 36.091585 -115.164350 243 2129ft 0kts
05-Oct-18 19:27 36.091585 -115.164350 243 2129ft 0kts
05-Oct-18 19:28 36.091535 -115.164422 207 2130ft 0kts
05-Oct-18 19:29 36.093114 -115.162585 24 2120ft 26kts
05-Oct-18 19:30 36.099749 -115.157998 70 2092ft 12kts
05-Oct-18 19:31 36.099825 -115.157708 72 2091ft 0kts
05-Oct-18 19:32 36.097840 -115.157463 207 2093ft 27kts
05-Oct-18 19:33 36.074066 -115.170721 203 2596ft 184kts
05-Oct-18 19:34 36.020275 -115.203841 224 5828ft 246kts
05-Oct-18 19:35 35.974723 -115.277685 205 7076ft 301kts
05-Oct-18 19:36 35.894729 -115.267434 152 10581ft 311kts
05-Oct-18 19:37 35.864673 -115.166881 87 12842ft 344kts
05-Oct-18 19:38 35.876296 -115.049957 62 15500ft 353kts
05-Oct-18 19:39 35.922279 -114.941267 59 17814ft 366kts
05-Oct-18 19:40 35.969927 -114.827300 61 18952ft 383kts
05-Oct-18 19:41 36.015672 -114.708942 61 20993ft 387kts
05-Oct-18 19:42 36.062581 -114.587261 60 22646ft 400kts
05-Oct-18 19:43 36.110088 -114.463525 60 24104ft 410kts
05-Oct-18 19:44 36.158842 -114.336082 61 25373ft 421kts
05-Oct-18 19:45 36.198056 -114.198505 77 26493ft 436kts
05-Oct-18 19:46 36.216994 -114.049338 78 27498ft 445kts
05-Oct-18 19:47 36.235103 -113.896788 78 28395ft 453kts
05-Oct-18 19:48 36.253283 -113.741259 78 29217ft 461kts
05-Oct-18 19:49 36.271542 -113.583154 78 30228ft 469kts
05-Oct-18 19:50 36.289664 -113.424302 78 31518ft 468kts
05-Oct-18 19:51 36.308875 -113.266742 69 32541ft 466kts
05-Oct-18 19:52 36.385440 -113.145098 38 33484ft 450kts
05-Oct-18 19:53 36.476896 -113.040236 36 34410ft 450kts
05-Oct-18 19:54 36.570539 -112.934724 37 34985ft 459kts
05-Oct-18 19:55 36.666805 -112.827710 35 35116ft 475kts
05-Oct-18 19:56 36.769517 -112.720577 36 35115ft 491kts
05-Oct-18 19:57 36.874421 -112.610822 36 35110ft 491kts
05-Oct-18 19:58 36.977968 -112.502117 36 35112ft 485kts
05-Oct-18 19:59 37.080134 -112.394479 36 35143ft 480kts
05-Oct-18 20:00 37.179057 -112.289885 36 35181ft 480kts
05-Oct-18 20:01 37.280754 -112.181962 36 35181ft 481kts
05-Oct-18 20:02 37.381937 -112.072552 41 35175ft 484kts
05-Oct-18 20:03 37.475789 -111.952163 42 35183ft 485kts
05-Oct-18 20:04 37.569201 -111.830139 42 35184ft 486kts
05-Oct-18 20:05 37.662705 -111.707404 42 35185ft 486kts
05-Oct-18 20:06 37.756123 -111.584314 42 35186ft 487kts
05-Oct-18 20:07 37.849480 -111.460812 42 35187ft 487kts
05-Oct-18 20:08 37.941136 -111.339098 43 35178ft 488kts
05-Oct-18 20:09 38.034245 -111.214968 43 35113ft 489kts
05-Oct-18 20:10 38.125253 -111.093173 43 35099ft 489kts
05-Oct-18 20:11 38.218067 -110.968492 43 35100ft 489kts
05-Oct-18 20:12 38.310866 -110.843293 44 35098ft 490kts
05-Oct-18 20:13 38.403323 -110.716391 51 35089ft 494kts
05-Oct-18 20:14 38.464252 -110.562175 64 35104ft 497kts
05-Oct-18 20:15 38.520133 -110.401476 64 35103ft 498kts
05-Oct-18 20:16 38.574343 -110.243808 65 35077ft 499kts
05-Oct-18 20:17 38.629478 -110.082562 65 35062ft 499kts
05-Oct-18 20:18 38.684679 -109.920193 65 35063ft 499kts
05-Oct-18 20:19 38.739675 -109.757534 65 35065ft 500kts
05-Oct-18 20:20 38.794463 -109.594560 65 35065ft 500kts
05-Oct-18 20:21 38.849196 -109.430798 65 35072ft 501kts
05-Oct-18 20:22 38.902403 -109.270729 65 35061ft 501kts
05-Oct-18 20:23 38.956342 -109.107596 66 35075ft 500kts
05-Oct-18 20:24 39.010329 -108.943339 66 35106ft 500kts
05-Oct-18 20:25 39.061116 -108.779723 73 33950ft 490kts
05-Oct-18 20:26 39.096876 -108.613306 74 32839ft 480kts
05-Oct-18 20:27 39.130404 -108.451417 74 31270ft 483kts
05-Oct-18 20:28 39.162748 -108.293878 74 30225ft 472kts
05-Oct-18 20:29 39.195468 -108.133208 74 28755ft 460kts
05-Oct-18 20:30 39.227109 -107.976697 74 27150ft 446kts
05-Oct-18 20:31 39.257372 -107.825857 74 25095ft 429kts
05-Oct-18 20:32 39.286382 -107.680279 74 23100ft 413kts
05-Oct-18 20:33 39.313987 -107.540763 74 21180ft 399kts
05-Oct-18 20:34 39.339415 -107.411311 74 19810ft 345kts
05-Oct-18 20:35 39.361716 -107.297247 75 17145ft 331kts
05-Oct-18 20:36 39.382765 -107.188847 75 15286ft 292kts
05-Oct-18 20:37 39.402346 -107.087580 75 13744ft 287kts
05-Oct-18 20:38 39.421245 -106.989254 75 13009ft 282kts
05-Oct-18 20:39 39.440747 -106.890319 65 13003ft 288kts
05-Oct-18 20:40 39.506119 -106.865388 337 13015ft 260kts
05-Oct-18 20:41 39.517486 -106.935383 239 13012ft 215kts
05-Oct-18 20:42 39.470119 -106.962942 188 13020ft 191kts
05-Oct-18 20:43 39.417069 -106.961249 161 13023ft 201kts
05-Oct-18 20:44 39.369991 -106.938890 159 12526ft 173kts
05-Oct-18 20:45 39.326294 -106.918508 167 11892ft 166kts
05-Oct-18 20:46 39.283307 -106.896829 164 11219ft 167kts
05-Oct-18 20:47 39.240040 -106.876791 159 8407ft 166kts
05-Oct-18 20:48 39.212347 -106.863723 158 7844ft 23kts
05-Oct-18 20:49 39.217504 -106.864947 339 7844ft 29kts
05-Oct-18 20:50 39.218768 -106.864383 77 7844ft 0kts

Navigation Log

Ident Type
Flight plan parsing failed, navigation log unavailable